• Join FlightAware (Why Join?)
  • Login
  • US Flag 
03:22AM EDT


 

Airport Tracker/Info


-or-


 

Live Flight TrackerFlight Track Log ✈ ASA67 ✈ 23-Apr-2012 ✈ PAJN / JNU - PANC

Flight Track Log - Related Links

Times and Time Zones

All times are in EDT time to prevent confusion due to time zone crossing. See the ASA67 flight status page for this flight to view local times or setup timezone preferences in your user account.

Time Position Orientation Groundspeed Altitude Reporting Facility
EDT Latitude Longitude Course Direction KTS MPH feet Rate Location/Type
11:51PM 58.4116 -134.8144 281° West  Level FlightAware Approximate
11:52PM 58.4714 -134.9878 259° West  Level FlightAware Approximate
11:53PM 58.5191 -135.1781 189° South  Level FlightAware Approximate
11:54PM 58.5638 -135.3699 142° Southeast  Level FlightAware Approximate
11:54PM 58.4500 -135.2000 307° West 360 414 13,700  Level Anchorage Center
11:55PM 58.5167 -135.3667 300° West 370 426 16,600 2,640 Climbing Anchorage Center
11:56PM 58.5667 -135.5333 305° West 390 449 19,100 2,520 Climbing Anchorage Center
11:57PM 58.6333 -135.7167 300° West 400 460 21,800 2,760 Climbing Anchorage Center
11:58PM 58.6833 -135.8833 305° West 390 449 24,700 2,220 Climbing Anchorage Center
11:59PM 58.7500 -136.0667 298° West 400 460 26,300 1,620 Climbing Anchorage Center
12:00AM 58.8000 -136.2500 305° West 410 472 28,000 1,680 Climbing Anchorage Center
12:01AM 58.8667 -136.4333 296° West 420 483 29,800 1,740 Climbing Anchorage Center
12:02AM 58.9167 -136.6333 303° West 420 483 31,600 1,080 Climbing Anchorage Center
12:03AM 58.9833 -136.8333 305° West 420 483 32,000 180 Climbing Anchorage Center
12:04AM 59.0500 -137.0167 296° West 420 483 32,000  Level Anchorage Center
12:05AM 59.1000 -137.2167 305° West 410 472 32,000  Level Anchorage Center
12:06AM 59.1667 -137.4000 296° West 410 472 32,000  Level Anchorage Center
12:07AM 59.2167 -137.6000 303° West 420 483 32,000  Level Anchorage Center
12:08AM 59.2833 -137.8000 303° West 420 483 32,000  Level Anchorage Center
12:09AM 59.3500 -138.0000 296° West 420 483 32,000  Level Anchorage Center
12:10AM 59.4000 -138.2000 287° West 420 483 32,000  Level Anchorage Center
12:11AM 59.4333 -138.4167 295° West 420 483 32,000  Level Anchorage Center
12:12AM 59.4833 -138.6333 287° West 420 483 32,000  Level Anchorage Center
12:13AM 59.5167 -138.8500 287° West 420 483 32,000  Level Anchorage Center
12:14AM 59.5500 -139.0667 286° West 420 483 32,000  Level Anchorage Center
12:15AM 59.5833 -139.3000 285° West 430 495 32,000  Level Anchorage Center
12:16AM 59.6167 -139.5500 287° West 420 483 32,000  Level Anchorage Center
12:17AM 59.6500 -139.7667 286° West 420 483 32,000  Level Anchorage Center
12:18AM 59.6833 -140.0000 287° West 430 495 32,000  Level Anchorage Center
12:19AM 59.7167 -140.2167 287° West 420 483 32,000  Level Anchorage Center
12:20AM 59.7500 -140.4333 286° West 420 483 32,000  Level Anchorage Center
12:21AM 59.7833 -140.6667 287° West 420 483 32,000  Level Anchorage Center
12:22AM 59.8167 -140.8833 286° West 420 483 32,000  Level Anchorage Center
12:23AM 59.8500 -141.1167 287° West 420 483 32,000  Level Anchorage Center
12:25AM 59.8833 -141.3333 278° West 420 483 32,000  Level Anchorage Center
12:26AM 59.9000 -141.5667 286° West 430 495 32,000  Level Anchorage Center
12:27AM 59.9333 -141.8000 287° West 430 495 32,000  Level Anchorage Center
12:28AM 59.9667 -142.0167 286° West 430 495 32,000  Level Anchorage Center
12:29AM 60.0000 -142.2500 286° West 420 483 32,000  Level Anchorage Center
12:30AM 60.0333 -142.4833 279° West 420 483 32,000  Level Anchorage Center
12:31AM 60.0500 -142.7000 286° West 420 483 32,000  Level Anchorage Center
12:32AM 60.0833 -142.9333 286° West 420 483 32,000  Level Anchorage Center
12:33AM 60.1167 -143.1667 285° West 420 483 32,000  Level Anchorage Center
12:34AM 60.1500 -143.4167 278° West 430 495 32,000  Level Anchorage Center
12:35AM 60.1667 -143.6500 287° West 400 460 32,000  Level Anchorage Center
12:36AM 60.2000 -143.8667 279° West 420 483 32,000  Level Anchorage Center
12:37AM 60.2167 -144.0833 286° West 410 472 32,000  Level Anchorage Center
12:38AM 60.2500 -144.3167 279° West 400 460 32,000  Level Anchorage Center
12:39AM 60.2667 -144.5333 278° West 410 472 32,000  Level Anchorage Center
12:40AM 60.2833 -144.7667 287° West 410 472 32,000  Level Anchorage Center
12:41AM 60.3167 -144.9833 278° West 410 472 32,000  Level Anchorage Center
12:42AM 60.3333 -145.2167 287° West 410 472 32,000  Level Anchorage Center
12:43AM 60.3667 -145.4333 278° West 400 460 32,000  Level Anchorage Center
12:44AM 60.3833 -145.6667 278° West 410 472 32,000  Level Anchorage Center
12:45AM 60.4000 -145.9000 286° West 410 472 32,000  Level Anchorage Center
12:46AM 60.4333 -146.1333 279° West 420 483 32,000  Level Anchorage Center
12:47AM 60.4500 -146.3500 278° West 410 472 32,000  Level Anchorage Center
12:48AM 60.4667 -146.5833 295° West 410 472 32,000  Level Anchorage Center
12:49AM 60.5167 -146.8000 287° West 410 472 32,000  Level Anchorage Center
12:50AM 60.5500 -147.0167 295° West 400 460 32,000  Level Anchorage Center
12:51AM 60.6000 -147.2333 294° West 410 472 32,000  Level Anchorage Center
12:52AM 60.6500 -147.4667 295° West 400 460 32,000 -120 Level Anchorage Center
12:53AM 60.7000 -147.6833 288° West 400 460 31,800 -1,200 Descending Anchorage Center
12:54AM 60.7333 -147.9000 289° West 400 460 29,600 -2,340 Descending Anchorage Center
12:55AM 60.7667 -148.1000 289° West 390 449 27,200 -2,340 Descending Anchorage Center
12:56AM 60.8000 -148.3000 297° West 380 437 24,900 -2,400 Descending Anchorage Center
12:57AM 60.8500 -148.5000 291° West 370 426 22,400 -2,220 Descending Anchorage Center
12:58AM 60.8833 -148.6833 291° West 350 403 20,500 -2,280 Descending Anchorage Center
12:59AM 60.9167 -148.8667 284° West 350 403 17,900 -2,580 Descending Anchorage Center
01:06AM 61.0811 -150.2711 54° Northeast  Level FlightAware Approximate
01:07AM 61.1418 -150.0953 55° Northeast  Level FlightAware Approximate
01:08AM 61.2013 -149.9160 235° Southwest  Level Estimated
01:09AM 61.1455 -150.0789 54° Northeast  Level FlightAware Approximate
01:10AM 61.2075 -149.9035 234° Southwest  Level Estimated
01:11AM 61.1455 -150.0789 65° Northeast  Level Estimated
01:12AM 61.1667 -149.9833 316° Northwest  Level FlightAware Approximate
01:13AM 61.2420 -150.1349 136° Southeast  Level Estimated
01:14AM 61.1667 -149.9833 316° Northwest  Level FlightAware Approximate
01:15AM 61.2420 -150.1349 136° Southeast  Level Estimated
01:16AM 61.1667 -149.9833 316° Northwest  Level FlightAware Approximate
01:17AM 61.2420 -150.1349 316° Northwest  Level Estimated